sensor_id;sensor_type;location;lat;lon;timestamp;P1;durP1;ratioP1;P2;durP2;ratioP2
51782;SDS011;37845;53.196;5.638;2023-04-03T00:01:24;6.93;;;3.33;;
51782;SDS011;37845;53.196;5.638;2023-04-03T00:03:50;10.73;;;3.45;;
51782;SDS011;37845;53.196;5.638;2023-04-03T00:06:16;4.45;;;2.28;;
51782;SDS011;37845;53.196;5.638;2023-04-03T00:08:42;4.53;;;2.13;;
51782;SDS011;37845;53.196;5.638;2023-04-03T00:11:08;6.57;;;2.28;;
51782;SDS011;37845;53.196;5.638;2023-04-03T00:13:35;6.80;;;3.00;;
51782;SDS011;37845;53.196;5.638;2023-04-03T00:16:01;6.43;;;3.25;;
51782;SDS011;37845;53.196;5.638;2023-04-03T00:18:31;14.32;;;3.10;;
51782;SDS011;37845;53.196;5.638;2023-04-03T00:20:56;7.38;;;3.20;;
51782;SDS011;37845;53.196;5.638;2023-04-03T00:23:22;4.15;;;2.67;;
51782;SDS011;37845;53.196;5.638;2023-04-03T00:25:49;8.52;;;2.88;;
51782;SDS011;37845;53.196;5.638;2023-04-03T00:28:16;6.18;;;3.38;;
51782;SDS011;37845;53.196;5.638;2023-04-03T00:30:41;8.02;;;3.33;;
51782;SDS011;37845;53.196;5.638;2023-04-03T00:33:08;14.27;;;3.13;;
51782;SDS011;37845;53.196;5.638;2023-04-03T00:35:36;11.65;;;3.78;;
51782;SDS011;37845;53.196;5.638;2023-04-03T00:40:32;7.75;;;4.00;;
51782;SDS011;37845;53.196;5.638;2023-04-03T00:43:05;7.75;;;2.83;;
51782;SDS011;37845;53.196;5.638;2023-04-03T00:45:44;8.05;;;3.00;;
51782;SDS011;37845;53.196;5.638;2023-04-03T00:48:17;6.57;;;2.85;;
51782;SDS011;37845;53.196;5.638;2023-04-03T00:50:46;6.95;;;3.80;;
51782;SDS011;37845;53.196;5.638;2023-04-03T00:53:14;9.05;;;3.22;;
51782;SDS011;37845;53.196;5.638;2023-04-03T00:55:46;9.38;;;4.38;;
51782;SDS011;37845;53.196;5.638;2023-04-03T00:58:13;10.00;;;3.78;;
51782;SDS011;37845;53.196;5.638;2023-04-03T01:00:46;7.68;;;4.10;;
51782;SDS011;37845;53.196;5.638;2023-04-03T01:03:22;10.57;;;4.13;;
51782;SDS011;37845;53.196;5.638;2023-04-03T01:05:48;7.38;;;3.35;;
51782;SDS011;37845;53.196;5.638;2023-04-03T01:08:17;10.13;;;3.33;;
51782;SDS011;37845;53.196;5.638;2023-04-03T01:10:43;5.97;;;3.03;;
51782;SDS011;37845;53.196;5.638;2023-04-03T01:13:22;12.02;;;3.25;;
51782;SDS011;37845;53.196;5.638;2023-04-03T01:16:11;7.13;;;3.33;;
51782;SDS011;37845;53.196;5.638;2023-04-03T01:18:38;5.82;;;2.88;;
51782;SDS011;37845;53.196;5.638;2023-04-03T01:21:11;5.60;;;3.05;;
51782;SDS011;37845;53.196;5.638;2023-04-03T01:29:08;6.55;;;2.42;;
51782;SDS011;37845;53.196;5.638;2023-04-03T01:34:00;4.35;;;3.05;;
51782;SDS011;37845;53.196;5.638;2023-04-03T01:36:27;3.50;;;2.30;;
51782;SDS011;37845;53.196;5.638;2023-04-03T01:38:56;6.13;;;2.97;;
51782;SDS011;37845;53.196;5.638;2023-04-03T01:41:27;9.27;;;3.03;;
51782;SDS011;37845;53.196;5.638;2023-04-03T01:43:56;8.82;;;3.28;;
51782;SDS011;37845;53.196;5.638;2023-04-03T01:46:22;6.50;;;2.80;;
51782;SDS011;37845;53.196;5.638;2023-04-03T01:48:51;4.32;;;2.60;;
51782;SDS011;37845;53.196;5.638;2023-04-03T01:51:22;7.97;;;2.97;;
51782;SDS011;37845;53.196;5.638;2023-04-03T01:53:48;5.75;;;2.85;;
51782;SDS011;37845;53.196;5.638;2023-04-03T01:56:14;7.90;;;2.20;;
51782;SDS011;37845;53.196;5.638;2023-04-03T01:58:40;5.68;;;2.47;;
51782;SDS011;37845;53.196;5.638;2023-04-03T02:01:08;7.63;;;2.40;;
51782;SDS011;37845;53.196;5.638;2023-04-03T02:03:34;4.57;;;2.20;;
51782;SDS011;37845;53.196;5.638;2023-04-03T02:06:00;6.32;;;2.80;;
51782;SDS011;37845;53.196;5.638;2023-04-03T02:08:37;6.70;;;2.45;;
51782;SDS011;37845;53.196;5.638;2023-04-03T02:11:02;7.47;;;3.15;;
51782;SDS011;37845;53.196;5.638;2023-04-03T02:13:28;8.90;;;3.92;;
51782;SDS011;37845;53.196;5.638;2023-04-03T02:15:54;9.23;;;2.58;;
51782;SDS011;37845;53.196;5.638;2023-04-03T02:18:19;11.98;;;3.13;;
51782;SDS011;37845;53.196;5.638;2023-04-03T02:20:46;6.53;;;2.78;;
51782;SDS011;37845;53.196;5.638;2023-04-03T02:23:12;8.68;;;2.85;;
51782;SDS011;37845;53.196;5.638;2023-04-03T02:25:38;4.53;;;2.65;;
51782;SDS011;37845;53.196;5.638;2023-04-03T02:28:04;6.40;;;2.95;;
51782;SDS011;37845;53.196;5.638;2023-04-03T02:30:30;6.32;;;2.28;;
51782;SDS011;37845;53.196;5.638;2023-04-03T02:32:55;7.78;;;2.38;;
51782;SDS011;37845;53.196;5.638;2023-04-03T02:35:27;5.50;;;2.40;;
51782;SDS011;37845;53.196;5.638;2023-04-03T02:37:53;5.88;;;2.47;;
51782;SDS011;37845;53.196;5.638;2023-04-03T02:40:18;8.18;;;3.70;;
51782;SDS011;37845;53.196;5.638;2023-04-03T02:42:44;4.35;;;2.58;;
51782;SDS011;37845;53.196;5.638;2023-04-03T02:45:10;4.05;;;2.35;;
51782;SDS011;37845;53.196;5.638;2023-04-03T02:47:36;3.97;;;2.13;;
51782;SDS011;37845;53.196;5.638;2023-04-03T02:50:02;7.20;;;3.35;;
51782;SDS011;37845;53.196;5.638;2023-04-03T02:52:27;6.55;;;3.08;;
51782;SDS011;37845;53.196;5.638;2023-04-03T02:54:53;5.45;;;2.20;;
51782;SDS011;37845;53.196;5.638;2023-04-03T02:57:24;7.68;;;2.00;;
51782;SDS011;37845;53.196;5.638;2023-04-03T02:59:50;7.18;;;2.40;;
51782;SDS011;37845;53.196;5.638;2023-04-03T03:02:16;6.90;;;2.75;;
51782;SDS011;37845;53.196;5.638;2023-04-03T03:04:44;5.57;;;2.65;;
51782;SDS011;37845;53.196;5.638;2023-04-03T03:07:10;6.78;;;2.60;;
51782;SDS011;37845;53.196;5.638;2023-04-03T03:09:35;5.53;;;2.50;;
51782;SDS011;37845;53.196;5.638;2023-04-03T03:12:01;5.55;;;2.25;;
51782;SDS011;37845;53.196;5.638;2023-04-03T03:14:30;6.20;;;2.60;;
51782;SDS011;37845;53.196;5.638;2023-04-03T03:16:55;5.65;;;2.58;;
51782;SDS011;37845;53.196;5.638;2023-04-03T03:19:21;7.82;;;3.58;;
51782;SDS011;37845;53.196;5.638;2023-04-03T03:21:49;5.47;;;2.42;;
51782;SDS011;37845;53.196;5.638;2023-04-03T03:24:16;10.48;;;3.90;;
51782;SDS011;37845;53.196;5.638;2023-04-03T03:26:42;5.75;;;3.20;;
51782;SDS011;37845;53.196;5.638;2023-04-03T03:29:11;4.25;;;3.03;;
51782;SDS011;37845;53.196;5.638;2023-04-03T03:31:36;7.35;;;2.75;;
51782;SDS011;37845;53.196;5.638;2023-04-03T03:34:02;5.30;;;2.63;;
51782;SDS011;37845;53.196;5.638;2023-04-03T03:36:28;5.55;;;2.70;;
51782;SDS011;37845;53.196;5.638;2023-04-03T03:38:53;6.57;;;3.65;;
51782;SDS011;37845;53.196;5.638;2023-04-03T03:41:19;16.00;;;2.95;;
51782;SDS011;37845;53.196;5.638;2023-04-03T03:43:45;5.20;;;3.20;;
51782;SDS011;37845;53.196;5.638;2023-04-03T03:46:11;5.63;;;3.30;;
51782;SDS011;37845;53.196;5.638;2023-04-03T03:48:37;8.10;;;2.95;;
51782;SDS011;37845;53.196;5.638;2023-04-03T03:51:02;11.18;;;3.95;;
51782;SDS011;37845;53.196;5.638;2023-04-03T03:53:28;4.28;;;2.25;;
51782;SDS011;37845;53.196;5.638;2023-04-03T03:55:54;9.43;;;2.95;;
51782;SDS011;37845;53.196;5.638;2023-04-03T03:58:20;6.25;;;3.08;;
51782;SDS011;37845;53.196;5.638;2023-04-03T04:00:49;10.07;;;3.33;;
51782;SDS011;37845;53.196;5.638;2023-04-03T04:03:14;8.32;;;2.38;;
51782;SDS011;37845;53.196;5.638;2023-04-03T04:05:40;6.18;;;3.55;;
51782;SDS011;37845;53.196;5.638;2023-04-03T04:08:06;9.15;;;3.40;;
51782;SDS011;37845;53.196;5.638;2023-04-03T04:10:33;12.32;;;3.20;;
51782;SDS011;37845;53.196;5.638;2023-04-03T04:12:59;9.43;;;3.20;;
51782;SDS011;37845;53.196;5.638;2023-04-03T04:15:25;4.88;;;2.30;;
51782;SDS011;37845;53.196;5.638;2023-04-03T04:17:52;8.82;;;3.22;;
51782;SDS011;37845;53.196;5.638;2023-04-03T04:20:18;8.38;;;3.45;;
51782;SDS011;37845;53.196;5.638;2023-04-03T04:22:46;12.38;;;3.85;;
51782;SDS011;37845;53.196;5.638;2023-04-03T04:25:12;13.15;;;4.07;;
51782;SDS011;37845;53.196;5.638;2023-04-03T04:27:38;9.27;;;3.15;;
51782;SDS011;37845;53.196;5.638;2023-04-03T04:30:07;7.00;;;3.30;;
51782;SDS011;37845;53.196;5.638;2023-04-03T04:32:33;6.65;;;3.60;;
51782;SDS011;37845;53.196;5.638;2023-04-03T04:34:58;9.65;;;3.03;;
51782;SDS011;37845;53.196;5.638;2023-04-03T04:37:24;5.63;;;3.38;;
51782;SDS011;37845;53.196;5.638;2023-04-03T04:39:50;7.65;;;3.17;;
51782;SDS011;37845;53.196;5.638;2023-04-03T04:42:16;13.18;;;3.78;;
51782;SDS011;37845;53.196;5.638;2023-04-03T04:44:42;7.68;;;3.15;;
51782;SDS011;37845;53.196;5.638;2023-04-03T04:47:07;6.65;;;3.38;;
51782;SDS011;37845;53.196;5.638;2023-04-03T04:49:33;8.27;;;3.88;;
51782;SDS011;37845;53.196;5.638;2023-04-03T04:51:59;9.40;;;4.13;;
51782;SDS011;37845;53.196;5.638;2023-04-03T04:54:24;6.57;;;3.60;;
51782;SDS011;37845;53.196;5.638;2023-04-03T04:56:50;7.93;;;3.58;;
51782;SDS011;37845;53.196;5.638;2023-04-03T04:59:16;9.27;;;3.78;;
51782;SDS011;37845;53.196;5.638;2023-04-03T05:01:42;8.93;;;3.00;;
51782;SDS011;37845;53.196;5.638;2023-04-03T05:04:07;5.72;;;2.72;;
51782;SDS011;37845;53.196;5.638;2023-04-03T05:06:34;8.30;;;3.85;;
51782;SDS011;37845;53.196;5.638;2023-04-03T05:09:00;8.15;;;3.90;;
51782;SDS011;37845;53.196;5.638;2023-04-03T05:13:52;7.22;;;3.80;;
51782;SDS011;37845;53.196;5.638;2023-04-03T05:16:17;18.85;;;5.63;;
51782;SDS011;37845;53.196;5.638;2023-04-03T05:18:43;8.55;;;4.75;;
51782;SDS011;37845;53.196;5.638;2023-04-03T05:21:09;7.30;;;3.60;;
51782;SDS011;37845;53.196;5.638;2023-04-03T05:23:34;7.13;;;4.32;;
51782;SDS011;37845;53.196;5.638;2023-04-03T05:26:00;11.20;;;3.85;;
51782;SDS011;37845;53.196;5.638;2023-04-03T05:28:29;6.20;;;3.70;;
51782;SDS011;37845;53.196;5.638;2023-04-03T05:33:21;20.10;;;5.80;;
51782;SDS011;37845;53.196;5.638;2023-04-03T05:35:48;9.80;;;4.55;;
51782;SDS011;37845;53.196;5.638;2023-04-03T05:38:13;21.20;;;5.63;;
51782;SDS011;37845;53.196;5.638;2023-04-03T05:40:40;7.63;;;4.50;;
51782;SDS011;37845;53.196;5.638;2023-04-03T05:43:05;6.85;;;4.20;;
51782;SDS011;37845;53.196;5.638;2023-04-03T05:45:31;8.60;;;4.47;;
51782;SDS011;37845;53.196;5.638;2023-04-03T05:47:57;5.22;;;3.03;;
51782;SDS011;37845;53.196;5.638;2023-04-03T05:54:00;8.90;;;3.88;;
51782;SDS011;37845;53.196;5.638;2023-04-03T05:56:33;11.82;;;5.00;;
51782;SDS011;37845;53.196;5.638;2023-04-03T05:58:59;8.10;;;3.80;;
51782;SDS011;37845;53.196;5.638;2023-04-03T06:01:24;10.07;;;3.47;;
51782;SDS011;37845;53.196;5.638;2023-04-03T06:03:53;6.38;;;3.65;;
51782;SDS011;37845;53.196;5.638;2023-04-03T06:06:23;10.68;;;4.53;;
51782;SDS011;37845;53.196;5.638;2023-04-03T06:11:15;12.65;;;5.00;;
51782;SDS011;37845;53.196;5.638;2023-04-03T06:13:41;8.48;;;4.18;;
51782;SDS011;37845;53.196;5.638;2023-04-03T06:16:09;8.48;;;4.32;;
51782;SDS011;37845;53.196;5.638;2023-04-03T06:18:39;5.57;;;4.05;;
51782;SDS011;37845;53.196;5.638;2023-04-03T06:21:06;8.70;;;5.15;;
51782;SDS011;37845;53.196;5.638;2023-04-03T06:23:35;6.28;;;3.65;;
51782;SDS011;37845;53.196;5.638;2023-04-03T06:28:27;8.18;;;4.47;;
51782;SDS011;37845;53.196;5.638;2023-04-03T06:30:53;14.52;;;5.68;;
51782;SDS011;37845;53.196;5.638;2023-04-03T06:33:18;13.32;;;4.68;;
51782;SDS011;37845;53.196;5.638;2023-04-03T06:35:44;8.52;;;3.58;;
51782;SDS011;37845;53.196;5.638;2023-04-03T06:38:10;14.70;;;4.55;;
51782;SDS011;37845;53.196;5.638;2023-04-03T06:40:36;13.90;;;4.28;;
51782;SDS011;37845;53.196;5.638;2023-04-03T06:43:02;6.78;;;4.00;;
51782;SDS011;37845;53.196;5.638;2023-04-03T06:45:27;9.52;;;4.28;;
51782;SDS011;37845;53.196;5.638;2023-04-03T06:47:56;10.45;;;4.45;;
51782;SDS011;37845;53.196;5.638;2023-04-03T06:50:22;8.02;;;3.80;;
51782;SDS011;37845;53.196;5.638;2023-04-03T06:52:47;7.72;;;3.65;;
51782;SDS011;37845;53.196;5.638;2023-04-03T06:55:13;14.07;;;4.90;;
51782;SDS011;37845;53.196;5.638;2023-04-03T06:57:39;9.98;;;4.35;;
51782;SDS011;37845;53.196;5.638;2023-04-03T07:00:05;12.25;;;6.13;;
51782;SDS011;37845;53.196;5.638;2023-04-03T07:02:32;8.02;;;4.43;;
51782;SDS011;37845;53.196;5.638;2023-04-03T07:07:27;7.35;;;4.03;;
51782;SDS011;37845;53.196;5.638;2023-04-03T07:09:52;7.85;;;3.80;;
51782;SDS011;37845;53.196;5.638;2023-04-03T07:12:18;8.18;;;3.55;;
51782;SDS011;37845;53.196;5.638;2023-04-03T07:14:44;14.90;;;3.75;;
51782;SDS011;37845;53.196;5.638;2023-04-03T07:17:10;9.88;;;3.80;;
51782;SDS011;37845;53.196;5.638;2023-04-03T07:19:36;11.52;;;4.45;;
51782;SDS011;37845;53.196;5.638;2023-04-03T07:22:01;13.93;;;5.45;;
51782;SDS011;37845;53.196;5.638;2023-04-03T07:24:27;9.20;;;4.00;;
51782;SDS011;37845;53.196;5.638;2023-04-03T07:26:53;8.13;;;3.70;;
51782;SDS011;37845;53.196;5.638;2023-04-03T07:34:12;9.35;;;3.97;;
51782;SDS011;37845;53.196;5.638;2023-04-03T07:36:37;17.67;;;5.70;;
51782;SDS011;37845;53.196;5.638;2023-04-03T07:39:03;7.70;;;3.83;;
51782;SDS011;37845;53.196;5.638;2023-04-03T07:41:29;10.95;;;4.15;;
51782;SDS011;37845;53.196;5.638;2023-04-03T07:43:55;9.40;;;4.22;;
51782;SDS011;37845;53.196;5.638;2023-04-03T07:46:21;10.90;;;4.18;;
51782;SDS011;37845;53.196;5.638;2023-04-03T07:48:48;14.43;;;5.32;;
51782;SDS011;37845;53.196;5.638;2023-04-03T07:51:13;8.75;;;2.95;;
51782;SDS011;37845;53.196;5.638;2023-04-03T07:56:06;7.15;;;3.15;;
51782;SDS011;37845;53.196;5.638;2023-04-03T07:58:32;17.73;;;4.88;;
51782;SDS011;37845;53.196;5.638;2023-04-03T08:00:58;8.30;;;4.00;;
51782;SDS011;37845;53.196;5.638;2023-04-03T08:03:24;12.43;;;4.82;;
51782;SDS011;37845;53.196;5.638;2023-04-03T08:05:50;9.18;;;4.68;;
51782;SDS011;37845;53.196;5.638;2023-04-03T08:08:20;12.68;;;4.88;;
51782;SDS011;37845;53.196;5.638;2023-04-03T08:10:48;10.75;;;4.47;;
51782;SDS011;37845;53.196;5.638;2023-04-03T08:13:15;8.73;;;4.18;;
51782;SDS011;37845;53.196;5.638;2023-04-03T08:15:47;24.10;;;5.05;;
51782;SDS011;37845;53.196;5.638;2023-04-03T08:18:13;15.30;;;4.88;;
51782;SDS011;37845;53.196;5.638;2023-04-03T08:20:40;9.23;;;4.60;;
51782;SDS011;37845;53.196;5.638;2023-04-03T08:25:32;13.65;;;4.13;;
51782;SDS011;37845;53.196;5.638;2023-04-03T08:28:08;6.80;;;3.22;;
51782;SDS011;37845;53.196;5.638;2023-04-03T08:30:35;6.43;;;3.40;;
51782;SDS011;37845;53.196;5.638;2023-04-03T08:33:03;7.65;;;3.65;;
51782;SDS011;37845;53.196;5.638;2023-04-03T08:37:55;4.88;;;2.78;;
51782;SDS011;37845;53.196;5.638;2023-04-03T08:43:00;10.63;;;3.90;;
51782;SDS011;37845;53.196;5.638;2023-04-03T08:45:55;6.47;;;3.42;;
51782;SDS011;37845;53.196;5.638;2023-04-03T08:51:04;5.50;;;2.78;;
51782;SDS011;37845;53.196;5.638;2023-04-03T08:53:40;6.03;;;3.30;;
51782;SDS011;37845;53.196;5.638;2023-04-03T08:56:28;8.85;;;2.88;;
51782;SDS011;37845;53.196;5.638;2023-04-03T08:59:05;8.82;;;3.42;;
51782;SDS011;37845;53.196;5.638;2023-04-03T09:01:40;5.80;;;2.90;;
51782;SDS011;37845;53.196;5.638;2023-04-03T09:04:11;14.15;;;3.95;;
51782;SDS011;37845;53.196;5.638;2023-04-03T09:06:38;8.32;;;3.80;;
51782;SDS011;37845;53.196;5.638;2023-04-03T09:17:00;14.13;;;3.15;;
51782;SDS011;37845;53.196;5.638;2023-04-03T09:19:54;6.43;;;2.58;;
51782;SDS011;37845;53.196;5.638;2023-04-03T09:22:41;5.97;;;2.75;;
51782;SDS011;37845;53.196;5.638;2023-04-03T09:25:44;8.38;;;2.83;;
51782;SDS011;37845;53.196;5.638;2023-04-03T09:28:03;7.88;;;3.03;;
51782;SDS011;37845;53.196;5.638;2023-04-03T09:30:34;8.23;;;3.15;;
51782;SDS011;37845;53.196;5.638;2023-04-03T09:33:02;8.43;;;2.53;;
51782;SDS011;37845;53.196;5.638;2023-04-03T09:40:39;8.05;;;2.40;;
51782;SDS011;37845;53.196;5.638;2023-04-03T09:43:20;6.65;;;2.65;;
51782;SDS011;37845;53.196;5.638;2023-04-03T09:48:26;8.38;;;2.55;;
51782;SDS011;37845;53.196;5.638;2023-04-03T09:50:57;4.05;;;2.50;;
51782;SDS011;37845;53.196;5.638;2023-04-03T09:53:35;11.50;;;3.00;;
51782;SDS011;37845;53.196;5.638;2023-04-03T09:56:25;6.13;;;2.45;;
51782;SDS011;37845;53.196;5.638;2023-04-03T10:06:32;5.90;;;2.65;;
51782;SDS011;37845;53.196;5.638;2023-04-03T10:09:05;6.10;;;2.20;;
51782;SDS011;37845;53.196;5.638;2023-04-03T10:14:26;5.32;;;2.35;;
51782;SDS011;37845;53.196;5.638;2023-04-03T10:17:16;3.08;;;1.42;;
51782;SDS011;37845;53.196;5.638;2023-04-03T10:22:44;4.55;;;2.03;;
51782;SDS011;37845;53.196;5.638;2023-04-03T10:25:43;3.05;;;1.52;;
51782;SDS011;37845;53.196;5.638;2023-04-03T10:34:44;3.35;;;1.90;;
51782;SDS011;37845;53.196;5.638;2023-04-03T10:37:08;4.43;;;2.15;;
51782;SDS011;37845;53.196;5.638;2023-04-03T10:42:47;3.60;;;1.48;;
51782;SDS011;37845;53.196;5.638;2023-04-03T10:45:26;6.40;;;2.38;;
51782;SDS011;37845;53.196;5.638;2023-04-03T10:48:08;3.88;;;1.40;;
51782;SDS011;37845;53.196;5.638;2023-04-03T10:53:21;3.08;;;1.92;;
51782;SDS011;37845;53.196;5.638;2023-04-03T10:58:43;3.35;;;1.95;;
51782;SDS011;37845;53.196;5.638;2023-04-03T11:01:15;2.05;;;1.23;;
51782;SDS011;37845;53.196;5.638;2023-04-03T11:03:57;4.35;;;1.98;;
51782;SDS011;37845;53.196;5.638;2023-04-03T11:06:27;9.52;;;2.10;;
51782;SDS011;37845;53.196;5.638;2023-04-03T11:09:15;3.83;;;1.77;;
51782;SDS011;37845;53.196;5.638;2023-04-03T11:11:43;8.82;;;2.40;;
51782;SDS011;37845;53.196;5.638;2023-04-03T11:16:42;3.40;;;1.63;;
51782;SDS011;37845;53.196;5.638;2023-04-03T11:19:15;3.58;;;1.85;;
51782;SDS011;37845;53.196;5.638;2023-04-03T11:21:54;6.63;;;2.05;;
51782;SDS011;37845;53.196;5.638;2023-04-03T11:24:27;4.13;;;1.88;;
51782;SDS011;37845;53.196;5.638;2023-04-03T11:26:56;8.13;;;2.47;;
51782;SDS011;37845;53.196;5.638;2023-04-03T11:29:26;2.47;;;1.40;;
51782;SDS011;37845;53.196;5.638;2023-04-03T11:34:46;2.22;;;1.38;;
51782;SDS011;37845;53.196;5.638;2023-04-03T11:37:34;5.13;;;1.70;;
51782;SDS011;37845;53.196;5.638;2023-04-03T11:51:41;5.93;;;1.95;;
51782;SDS011;37845;53.196;5.638;2023-04-03T11:53:54;5.93;;;2.78;;
51782;SDS011;37845;53.196;5.638;2023-04-03T12:04:11;4.20;;;2.17;;
51782;SDS011;37845;53.196;5.638;2023-04-03T12:06:43;6.15;;;1.70;;
51782;SDS011;37845;53.196;5.638;2023-04-03T12:11:51;4.65;;;1.77;;
51782;SDS011;37845;53.196;5.638;2023-04-03T12:14:20;4.38;;;1.65;;
51782;SDS011;37845;53.196;5.638;2023-04-03T12:16:49;8.70;;;1.67;;
51782;SDS011;37845;53.196;5.638;2023-04-03T12:19:30;4.07;;;2.00;;
51782;SDS011;37845;53.196;5.638;2023-04-03T12:22:12;5.40;;;2.03;;
51782;SDS011;37845;53.196;5.638;2023-04-03T12:24:41;4.15;;;1.73;;
51782;SDS011;37845;53.196;5.638;2023-04-03T12:27:30;3.50;;;1.48;;
51782;SDS011;37845;53.196;5.638;2023-04-03T12:30:17;5.28;;;2.63;;
51782;SDS011;37845;53.196;5.638;2023-04-03T12:35:57;2.95;;;1.73;;
51782;SDS011;37845;53.196;5.638;2023-04-03T12:39:01;3.55;;;1.75;;
51782;SDS011;37845;53.196;5.638;2023-04-03T12:41:46;5.97;;;1.80;;
51782;SDS011;37845;53.196;5.638;2023-04-03T12:47:06;6.10;;;1.70;;
51782;SDS011;37845;53.196;5.638;2023-04-03T12:49:53;8.45;;;1.90;;
51782;SDS011;37845;53.196;5.638;2023-04-03T12:54:57;3.15;;;1.73;;
51782;SDS011;37845;53.196;5.638;2023-04-03T12:57:29;4.95;;;2.38;;
51782;SDS011;37845;53.196;5.638;2023-04-03T12:59:57;4.38;;;2.17;;
51782;SDS011;37845;53.196;5.638;2023-04-03T13:05:06;3.97;;;2.25;;
51782;SDS011;37845;53.196;5.638;2023-04-03T13:07:38;3.95;;;1.58;;
51782;SDS011;37845;53.196;5.638;2023-04-03T13:10:13;8.75;;;2.30;;
51782;SDS011;37845;53.196;5.638;2023-04-03T13:12:48;5.10;;;2.47;;
51782;SDS011;37845;53.196;5.638;2023-04-03T13:21:12;4.97;;;1.58;;
51782;SDS011;37845;53.196;5.638;2023-04-03T13:23:43;6.43;;;1.67;;
51782;SDS011;37845;53.196;5.638;2023-04-03T13:26:12;6.18;;;2.30;;
51782;SDS011;37845;53.196;5.638;2023-04-03T13:28:41;3.10;;;1.92;;
51782;SDS011;37845;53.196;5.638;2023-04-03T13:34:07;6.18;;;2.22;;
51782;SDS011;37845;53.196;5.638;2023-04-03T13:45:05;4.50;;;1.92;;
51782;SDS011;37845;53.196;5.638;2023-04-03T13:49:39;5.57;;;2.13;;
51782;SDS011;37845;53.196;5.638;2023-04-03T13:52:27;6.28;;;1.98;;
51782;SDS011;37845;53.196;5.638;2023-04-03T13:55:21;4.32;;;2.35;;
51782;SDS011;37845;53.196;5.638;2023-04-03T13:57:54;5.97;;;2.28;;
51782;SDS011;37845;53.196;5.638;2023-04-03T14:00:34;3.53;;;2.10;;
51782;SDS011;37845;53.196;5.638;2023-04-03T14:05:57;3.70;;;2.55;;
51782;SDS011;37845;53.196;5.638;2023-04-03T14:08:25;5.60;;;2.20;;
51782;SDS011;37845;53.196;5.638;2023-04-03T14:10:50;7.40;;;2.83;;
51782;SDS011;37845;53.196;5.638;2023-04-03T14:15:43;5.43;;;2.28;;
51782;SDS011;37845;53.196;5.638;2023-04-03T14:18:13;6.90;;;2.08;;
51782;SDS011;37845;53.196;5.638;2023-04-03T14:20:41;5.00;;;2.47;;
51782;SDS011;37845;53.196;5.638;2023-04-03T14:23:07;4.75;;;2.63;;
51782;SDS011;37845;53.196;5.638;2023-04-03T14:25:35;8.70;;;2.13;;
51782;SDS011;37845;53.196;5.638;2023-04-03T14:28:01;4.25;;;2.45;;
51782;SDS011;37845;53.196;5.638;2023-04-03T14:30:40;4.05;;;2.28;;
51782;SDS011;37845;53.196;5.638;2023-04-03T14:33:06;5.68;;;2.05;;
51782;SDS011;37845;53.196;5.638;2023-04-03T14:38:00;5.20;;;2.72;;
51782;SDS011;37845;53.196;5.638;2023-04-03T14:40:26;6.72;;;2.10;;
51782;SDS011;37845;53.196;5.638;2023-04-03T14:42:52;5.80;;;2.30;;
51782;SDS011;37845;53.196;5.638;2023-04-03T14:45:20;10.70;;;2.45;;
51782;SDS011;37845;53.196;5.638;2023-04-03T14:47:48;5.10;;;1.75;;
51782;SDS011;37845;53.196;5.638;2023-04-03T14:50:20;5.25;;;2.28;;
51782;SDS011;37845;53.196;5.638;2023-04-03T14:52:48;6.22;;;3.33;;
51782;SDS011;37845;53.196;5.638;2023-04-03T14:55:17;6.70;;;2.15;;
51782;SDS011;37845;53.196;5.638;2023-04-03T14:57:44;6.65;;;2.92;;
51782;SDS011;37845;53.196;5.638;2023-04-03T15:00:17;7.68;;;3.25;;
51782;SDS011;37845;53.196;5.638;2023-04-03T15:02:44;6.20;;;3.10;;
51782;SDS011;37845;53.196;5.638;2023-04-03T15:05:10;5.70;;;2.40;;
51782;SDS011;37845;53.196;5.638;2023-04-03T15:07:41;7.55;;;2.10;;
51782;SDS011;37845;53.196;5.638;2023-04-03T15:12:44;2.50;;;1.65;;
51782;SDS011;37845;53.196;5.638;2023-04-03T15:15:10;4.75;;;2.28;;
51782;SDS011;37845;53.196;5.638;2023-04-03T15:17:42;8.98;;;2.13;;
51782;SDS011;37845;53.196;5.638;2023-04-03T15:20:19;8.27;;;2.60;;
51782;SDS011;37845;53.196;5.638;2023-04-03T15:22:46;5.28;;;2.20;;
51782;SDS011;37845;53.196;5.638;2023-04-03T15:25:15;11.68;;;2.72;;
51782;SDS011;37845;53.196;5.638;2023-04-03T15:27:41;6.40;;;2.85;;
51782;SDS011;37845;53.196;5.638;2023-04-03T15:30:13;7.35;;;3.10;;
51782;SDS011;37845;53.196;5.638;2023-04-03T15:32:43;5.10;;;2.58;;
51782;SDS011;37845;53.196;5.638;2023-04-03T15:35:09;5.88;;;3.03;;
51782;SDS011;37845;53.196;5.638;2023-04-03T15:37:36;5.97;;;2.47;;
51782;SDS011;37845;53.196;5.638;2023-04-03T15:40:02;10.20;;;2.78;;
51782;SDS011;37845;53.196;5.638;2023-04-03T15:42:32;7.22;;;2.95;;
51782;SDS011;37845;53.196;5.638;2023-04-03T15:44:58;6.07;;;2.80;;
51782;SDS011;37845;53.196;5.638;2023-04-03T15:49:51;6.90;;;2.80;;
51782;SDS011;37845;53.196;5.638;2023-04-03T15:52:20;6.20;;;3.10;;
51782;SDS011;37845;53.196;5.638;2023-04-03T15:54:46;6.82;;;2.88;;
51782;SDS011;37845;53.196;5.638;2023-04-03T15:57:15;6.18;;;2.70;;
51782;SDS011;37845;53.196;5.638;2023-04-03T15:59:40;5.85;;;3.03;;
51782;SDS011;37845;53.196;5.638;2023-04-03T16:02:06;7.82;;;2.47;;
51782;SDS011;37845;53.196;5.638;2023-04-03T16:04:34;5.82;;;2.90;;
51782;SDS011;37845;53.196;5.638;2023-04-03T16:07:01;7.90;;;2.70;;
51782;SDS011;37845;53.196;5.638;2023-04-03T16:09:27;7.70;;;2.40;;
51782;SDS011;37845;53.196;5.638;2023-04-03T16:11:59;5.18;;;2.58;;
51782;SDS011;37845;53.196;5.638;2023-04-03T16:14:28;5.57;;;2.63;;
51782;SDS011;37845;53.196;5.638;2023-04-03T16:16:56;7.90;;;3.15;;
51782;SDS011;37845;53.196;5.638;2023-04-03T16:19:22;5.63;;;2.17;;
51782;SDS011;37845;53.196;5.638;2023-04-03T16:24:14;3.78;;;1.80;;
51782;SDS011;37845;53.196;5.638;2023-04-03T16:29:06;4.00;;;1.60;;
51782;SDS011;37845;53.196;5.638;2023-04-03T16:31:34;8.63;;;1.92;;
51782;SDS011;37845;53.196;5.638;2023-04-03T16:36:28;2.10;;;1.40;;
51782;SDS011;37845;53.196;5.638;2023-04-03T16:39:00;6.72;;;2.20;;
51782;SDS011;37845;53.196;5.638;2023-04-03T16:41:26;2.90;;;1.63;;
51782;SDS011;37845;53.196;5.638;2023-04-03T16:43:52;5.50;;;2.38;;
51782;SDS011;37845;53.196;5.638;2023-04-03T16:48:43;11.93;;;3.10;;
51782;SDS011;37845;53.196;5.638;2023-04-03T16:53:34;5.95;;;2.42;;
51782;SDS011;37845;53.196;5.638;2023-04-03T16:56:02;8.07;;;1.98;;
51782;SDS011;37845;53.196;5.638;2023-04-03T16:58:28;5.93;;;1.90;;
51782;SDS011;37845;53.196;5.638;2023-04-03T17:00:54;6.40;;;3.75;;
51782;SDS011;37845;53.196;5.638;2023-04-03T17:03:20;7.78;;;2.08;;
51782;SDS011;37845;53.196;5.638;2023-04-03T17:05:48;6.72;;;2.28;;
51782;SDS011;37845;53.196;5.638;2023-04-03T17:08:14;5.30;;;2.00;;
51782;SDS011;37845;53.196;5.638;2023-04-03T17:10:41;4.93;;;1.90;;
51782;SDS011;37845;53.196;5.638;2023-04-03T17:13:06;9.45;;;2.35;;
51782;SDS011;37845;53.196;5.638;2023-04-03T17:15:33;7.40;;;3.25;;
51782;SDS011;37845;53.196;5.638;2023-04-03T17:17:59;2.95;;;1.98;;
51782;SDS011;37845;53.196;5.638;2023-04-03T17:20:25;6.88;;;2.33;;
51782;SDS011;37845;53.196;5.638;2023-04-03T17:22:53;6.97;;;3.10;;
51782;SDS011;37845;53.196;5.638;2023-04-03T17:25:19;8.68;;;2.75;;
51782;SDS011;37845;53.196;5.638;2023-04-03T17:27:45;4.47;;;1.90;;
51782;SDS011;37845;53.196;5.638;2023-04-03T17:32:36;12.05;;;2.08;;
51782;SDS011;37845;53.196;5.638;2023-04-03T17:35:02;3.17;;;1.83;;
51782;SDS011;37845;53.196;5.638;2023-04-03T17:37:28;5.15;;;2.33;;
51782;SDS011;37845;53.196;5.638;2023-04-03T17:39:54;9.63;;;2.50;;
51782;SDS011;37845;53.196;5.638;2023-04-03T17:42:20;3.75;;;2.05;;
51782;SDS011;37845;53.196;5.638;2023-04-03T17:44:45;5.93;;;2.28;;
51782;SDS011;37845;53.196;5.638;2023-04-03T17:47:11;2.97;;;1.63;;
51782;SDS011;37845;53.196;5.638;2023-04-03T17:52:03;7.47;;;2.15;;